Time;durP1;ratioP1;P1;durP2;ratioP2;P2;SDS_P1;SDS_P2;PMS_P1;PMS_P2;Temp;Humidity;BMP_temperature;BMP_pressure;BME280_temperature;BME280_humidity;BME280_pressure;Samples;Min_cycle;Max_cycle;Signal;HPM_P1;HPM_P2
2024/02/24 19:55:06;;;;;;;2.90;0.93;;;9.10;69.10;;;;;;2558982;52;22385;-67
2024/02/24 19:57:33;;;;;;;2.25;0.80;;;9.10;69.90;;;;;;2354878;53;21005;-66
2024/02/24 19:59:59;;;;;;;1.83;0.62;;;9.10;70.00;;;;;;2345782;53;21868;-66
2024/02/24 20:02:28;;;;;;;1.60;0.70;;;9.10;70.10;;;;;;2351160;54;21254;-66
2024/02/24 20:04:56;;;;;;;1.27;0.60;;;9.20;70.30;;;;;;2603967;53;20947;-67
2024/02/24 20:07:22;;;;;;;1.60;0.70;;;9.20;70.20;;;;;;2355053;54;20934;-66
2024/02/24 20:09:48;;;;;;;1.77;0.75;;;9.20;70.20;;;;;;2354924;54;21824;-66
2024/02/24 20:12:14;;;;;;;1.67;0.70;;;9.10;70.10;;;;;;2354605;54;20935;-65
2024/02/24 20:14:44;;;;;;;1.52;0.68;;;9.20;70.10;;;;;;2354224;54;20935;-65
2024/02/24 20:17:13;;;;;;;1.90;0.80;;;9.20;70.00;;;;;;2355294;54;21066;-65
2024/02/24 20:19:43;;;;;;;1.73;0.70;;;9.10;69.90;;;;;;2597647;53;20939;-65
2024/02/24 20:22:10;;;;;;;1.98;0.80;;;9.20;70.00;;;;;;2329381;54;20982;-65
2024/02/24 20:24:36;;;;;;;1.90;1.00;;;9.10;69.80;;;;;;2355061;54;21128;-65
2024/02/24 20:27:03;;;;;;;2.83;1.00;;;9.10;69.80;;;;;;2603575;53;20954;-66
2024/02/24 20:29:30;;;;;;;1.92;0.90;;;9.10;69.70;;;;;;2354733;54;20986;-65
2024/02/24 20:31:56;;;;;;;2.62;0.90;;;9.10;69.80;;;;;;2354743;54;21859;-66
2024/02/24 20:34:23;;;;;;;2.85;0.90;;;9.10;69.90;;;;;;2354844;54;20926;-66
2024/02/24 20:36:49;;;;;;;1.95;0.80;;;9.10;70.00;;;;;;2354635;54;21022;-65
2024/02/24 20:39:15;;;;;;;1.92;1.02;;;9.10;70.00;;;;;;2353787;54;20974;-66
2024/02/24 20:41:42;;;;;;;2.95;1.10;;;9.10;70.00;;;;;;2354446;54;21002;-66
2024/02/24 20:44:08;;;;;;;2.90;1.58;;;9.10;69.90;;;;;;2603586;53;22151;-66
2024/02/24 20:46:40;;;;;;;4.72;1.60;;;9.00;69.80;;;;;;2354739;54;21008;-66
2024/02/24 20:49:06;;;;;;;;;;;9.00;69.80;;;;;;2358190;54;21226;-65
2024/02/24 20:51:33;;;;;;;2.83;1.00;;;9.00;68.00;;;;;;2354737;54;20102;-66
2024/02/24 20:53:59;;;;;;;3.40;1.25;;;9.00;69.70;;;;;;2332108;54;21548;-65
2024/02/24 20:56:28;;;;;;;3.30;1.52;;;9.00;69.60;;;;;;2597064;53;20992;-65
2024/02/24 20:58:55;;;;;;;2.78;1.20;;;9.00;69.60;;;;;;2354501;54;21293;-65
2024/02/24 21:01:23;;;;;;;3.90;1.60;;;9.00;69.60;;;;;;2354034;54;20902;-66
2024/02/24 21:03:50;;;;;;;4.30;1.80;;;8.90;69.40;;;;;;2603808;53;20978;-66
2024/02/24 21:06:16;;;;;;;3.58;1.40;;;8.90;69.40;;;;;;2353972;54;20950;-65
2024/02/24 21:08:43;;;;;;;4.72;1.30;;;8.80;69.20;;;;;;2353823;54;21795;-65
2024/02/24 21:11:09;;;;;;;2.72;1.30;;;8.80;69.20;;;;;;2353373;54;20943;-66
2024/02/24 21:13:38;;;;;;;2.42;1.10;;;8.80;69.20;;;;;;2353510;54;21002;-67
2024/02/24 21:16:06;;;;;;;1.90;0.90;;;8.80;69.20;;;;;;2353141;54;20958;-65
2024/02/24 21:18:33;;;;;;;2.20;0.90;;;8.70;69.10;;;;;;2353730;54;21097;-65
2024/02/24 21:20:59;;;;;;;2.33;0.90;;;8.70;69.90;;;;;;2353133;54;21022;-65
2024/02/24 21:23:26;;;;;;;2.22;0.80;;;8.70;69.40;;;;;;2353794;54;20926;-66
2024/02/24 21:25:52;;;;;;;2.87;0.95;;;8.60;69.30;;;;;;2353471;54;20906;-66
2024/02/24 21:28:18;;;;;;;1.98;0.85;;;8.60;69.50;;;;;;2326461;54;20915;-65
2024/02/24 21:30:45;;;;;;;1.45;0.70;;;8.60;69.60;;;;;;2353451;54;20973;-65
2024/02/24 21:33:11;;;;;;;3.12;0.80;;;8.60;69.90;;;;;;2353314;54;20971;-64
2024/02/24 21:35:39;;;;;;;1.65;0.50;;;8.60;70.10;;;;;;2337900;54;21023;-65
2024/02/24 21:38:08;;;;;;;1.48;0.62;;;8.60;70.30;;;;;;2342231;54;21070;-65
2024/02/24 21:40:34;;;;;;;1.73;0.68;;;8.70;70.50;;;;;;2602771;53;20934;-64
2024/02/24 21:43:03;;;;;;;1.95;0.60;;;8.70;70.70;;;;;;2353695;54;20973;-65
2024/02/24 21:45:31;;;;;;;1.12;0.50;;;8.70;70.70;;;;;;2352984;54;21002;-65
2024/02/24 21:47:58;;;;;;;1.08;0.50;;;8.70;70.80;;;;;;2352927;54;20994;-66
2024/02/24 21:50:24;;;;;;;1.40;0.50;;;8.70;70.70;;;;;;2353646;54;21527;-65
2024/02/24 21:52:51;;;;;;;2.75;0.77;;;8.80;70.90;;;;;;2353969;54;21896;-66
2024/02/24 21:55:17;;;;;;;1.73;0.60;;;8.80;70.90;;;;;;2353363;54;20911;-65
2024/02/24 21:57:45;;;;;;;1.25;0.50;;;8.80;70.90;;;;;;2353728;54;20951;-65
2024/02/24 22:00:15;;;;;;;1.73;0.50;;;8.90;71.00;;;;;;2353080;54;20995;-65
2024/02/24 22:02:42;;;;;;;1.48;0.60;;;8.90;70.90;;;;;;2353090;54;20951;-66
2024/02/24 22:05:08;;;;;;;1.48;0.57;;;8.90;70.90;;;;;;2352334;54;21035;-65
2024/02/24 22:07:35;;;;;;;1.20;0.50;;;8.90;70.80;;;;;;2353447;54;20959;-65
2024/02/24 22:10:01;;;;;;;1.50;0.80;;;8.90;70.80;;;;;;2602435;53;21317;-66
2024/02/24 22:12:28;;;;;;;1.10;0.50;;;9.00;70.80;;;;;;2353048;54;21094;-66
2024/02/24 22:14:54;;;;;;;1.55;0.50;;;9.00;70.80;;;;;;2602766;53;20938;-65
2024/02/24 22:17:21;;;;;;;1.27;0.57;;;9.00;70.80;;;;;;2601640;53;20927;-65
2024/02/24 22:19:48;;;;;;;1.00;0.43;;;9.00;70.80;;;;;;2601660;53;20978;-65
2024/02/24 22:22:15;;;;;;;1.35;0.40;;;9.00;70.70;;;;;;2353252;54;21022;-65
2024/02/24 22:24:41;;;;;;;0.98;0.40;;;9.00;70.80;;;;;;2602677;53;20981;-66
2024/02/24 22:27:08;;;;;;;1.80;0.50;;;9.10;71.00;;;;;;2353218;54;21002;-66
2024/02/24 22:29:34;;;;;;;1.95;0.57;;;9.10;70.90;;;;;;2601842;53;21153;-66
2024/02/24 22:32:00;;;;;;;2.00;0.70;;;9.10;70.90;;;;;;2353257;54;20994;-65
2024/02/24 22:34:28;;;;;;;1.35;0.60;;;9.10;70.90;;;;;;2602373;53;20997;-66
2024/02/24 22:36:55;;;;;;;1.65;0.60;;;9.10;70.90;;;;;;2353985;54;20935;-64
2024/02/24 22:39:21;;;;;;;1.77;0.57;;;9.20;70.90;;;;;;2353653;54;20946;-67
2024/02/24 22:41:47;;;;;;;1.30;0.50;;;9.20;70.90;;;;;;2325254;55;21656;-66
2024/02/24 22:44:14;;;;;;;2.90;0.60;;;9.20;70.90;;;;;;2353317;54;20950;-66
2024/02/24 22:46:40;;;;;;;1.50;0.52;;;9.20;70.90;;;;;;2602239;53;21738;-66
2024/02/24 22:49:06;;;;;;;1.27;0.47;;;9.20;70.80;;;;;;2353166;54;20996;-66
2024/02/24 22:51:33;;;;;;;1.50;0.50;;;9.30;70.90;;;;;;2353559;54;21527;-66
2024/02/24 22:53:59;;;;;;;0.95;0.40;;;9.30;70.90;;;;;;2602344;53;20943;-67
2024/02/24 22:56:25;;;;;;;1.25;0.40;;;9.30;70.90;;;;;;2352996;54;20937;-66
2024/02/24 22:58:54;;;;;;;0.77;0.37;;;9.30;70.80;;;;;;2602736;53;21436;-65
2024/02/24 23:01:21;;;;;;;0.90;0.40;;;9.30;70.80;;;;;;2602166;53;21356;-67
2024/02/24 23:03:47;;;;;;;0.95;0.43;;;9.40;70.80;;;;;;2353235;54;21103;-65
2024/02/24 23:06:13;;;;;;;0.68;0.30;;;9.40;70.80;;;;;;2601820;53;20973;-66
2024/02/24 23:08:40;;;;;;;0.95;0.40;;;9.40;70.80;;;;;;2353264;54;21250;-66
2024/02/24 23:11:06;;;;;;;1.45;0.50;;;9.40;70.80;;;;;;2353053;54;20950;-65
2024/02/24 23:13:32;;;;;;;0.57;0.30;;;9.40;70.70;;;;;;2349211;54;20969;-65
2024/02/24 23:16:00;;;;;;;0.37;0.22;;;9.40;70.80;;;;;;2548996;53;20995;-66
2024/02/24 23:18:27;;;;;;;0.70;0.40;;;9.50;70.80;;;;;;2337876;54;21008;-66
2024/02/24 23:20:55;;;;;;;0.93;0.30;;;9.50;70.70;;;;;;2362683;54;21054;-65
2024/02/24 23:23:22;;;;;;;1.85;0.40;;;9.50;70.70;;;;;;2362367;54;20926;-66
2024/02/24 23:25:48;;;;;;;0.82;0.40;;;9.50;70.70;;;;;;2613533;52;21018;-65
2024/02/24 23:28:16;;;;;;;0.90;0.40;;;9.50;70.70;;;;;;2613539;52;21040;-65
2024/02/24 23:30:43;;;;;;;0.80;0.30;;;9.50;70.60;;;;;;2362938;54;20986;-65
2024/02/24 23:33:09;;;;;;;1.75;0.45;;;9.60;70.70;;;;;;2613440;52;20926;-66
2024/02/24 23:35:36;;;;;;;1.05;0.40;;;9.60;70.70;;;;;;2362965;54;20950;-65
2024/02/24 23:38:10;;;;;;;0.73;0.37;;;9.60;70.60;;;;;;2362237;54;21544;-65
2024/02/24 23:40:36;;;;;;;1.45;0.25;;;9.60;70.50;;;;;;2613754;52;21017;-66
2024/02/24 23:43:02;;;;;;;1.05;0.40;;;9.60;70.70;;;;;;2613899;52;21001;-66
2024/02/24 23:45:30;;;;;;;0.90;0.35;;;9.60;70.60;;;;;;2362409;54;20998;-66
2024/02/24 23:47:56;;;;;;;1.10;0.37;;;9.70;70.70;;;;;;2363312;54;21041;-66
2024/02/24 23:50:22;;;;;;;1.17;0.60;;;9.70;70.60;;;;;;2358590;53;20960;-66
2024/02/24 23:52:49;;;;;;;0.88;0.30;;;9.70;70.60;;;;;;2359167;54;20958;-66
2024/02/24 23:55:15;;;;;;;0.88;0.40;;;9.70;70.50;;;;;;2362688;54;20990;-66
2024/02/24 23:57:41;;;;;;;1.10;0.40;;;9.70;70.60;;;;;;2356569;54;20952;-66
